sensor_id;sensor_type;location;lat;lon;timestamp;temperature;humidity
85138;SHT31;75497;42.708;23.330;2024-01-30T00:01:13;-0.06;60.60
85138;SHT31;75497;42.708;23.330;2024-01-30T00:03:39;0.08;60.75
85138;SHT31;75497;42.708;23.330;2024-01-30T00:06:04;-0.06;60.88
85138;SHT31;75497;42.708;23.330;2024-01-30T00:08:30;-0.07;61.32
85138;SHT31;75497;42.708;23.330;2024-01-30T00:10:55;-0.01;61.26
85138;SHT31;75497;42.708;23.330;2024-01-30T00:13:21;-0.03;61.29
85138;SHT31;75497;42.708;23.330;2024-01-30T00:15:48;-0.09;61.52
85138;SHT31;75497;42.708;23.330;2024-01-30T00:18:14;-0.02;61.67
85138;SHT31;75497;42.708;23.330;2024-01-30T00:20:39;0.07;61.48
85138;SHT31;75497;42.708;23.330;2024-01-30T00:23:05;0.01;61.29
85138;SHT31;75497;42.708;23.330;2024-01-30T00:25:30;0.04;61.65
85138;SHT31;75497;42.708;23.330;2024-01-30T00:27:56;-0.17;62.12
85138;SHT31;75497;42.708;23.330;2024-01-30T00:30:21;-0.16;62.08
85138;SHT31;75497;42.708;23.330;2024-01-30T00:32:47;-0.06;61.61
85138;SHT31;75497;42.708;23.330;2024-01-30T00:35:12;-0.06;61.84
85138;SHT31;75497;42.708;23.330;2024-01-30T00:37:38;-0.22;62.38
85138;SHT31;75497;42.708;23.330;2024-01-30T00:40:04;-0.23;62.17
85138;SHT31;75497;42.708;23.330;2024-01-30T00:42:31;-0.24;62.13
85138;SHT31;75497;42.708;23.330;2024-01-30T00:44:57;-0.12;61.92
85138;SHT31;75497;42.708;23.330;2024-01-30T00:47:23;-0.16;61.76
85138;SHT31;75497;42.708;23.330;2024-01-30T00:49:48;-0.05;61.55
85138;SHT31;75497;42.708;23.330;2024-01-30T00:52:14;-0.02;61.08
85138;SHT31;75497;42.708;23.330;2024-01-30T00:54:40;-0.06;61.33
85138;SHT31;75497;42.708;23.330;2024-01-30T00:57:05;-0.24;62.11
85138;SHT31;75497;42.708;23.330;2024-01-30T00:59:31;-0.17;61.77
85138;SHT31;75497;42.708;23.330;2024-01-30T01:01:56;-0.10;61.59
85138;SHT31;75497;42.708;23.330;2024-01-30T01:04:21;-0.07;61.11
85138;SHT31;75497;42.708;23.330;2024-01-30T01:06:47;-0.13;61.25
85138;SHT31;75497;42.708;23.330;2024-01-30T01:09:13;-0.09;61.46
85138;SHT31;75497;42.708;23.330;2024-01-30T01:11:38;-0.13;61.24
85138;SHT31;75497;42.708;23.330;2024-01-30T01:14:04;-0.12;61.32
85138;SHT31;75497;42.708;23.330;2024-01-30T01:16:48;-0.01;61.00
85138;SHT31;75497;42.708;23.330;2024-01-30T01:19:14;-0.06;61.03
85138;SHT31;75497;42.708;23.330;2024-01-30T01:21:39;-0.07;61.03
85138;SHT31;75497;42.708;23.330;2024-01-30T01:24:05;-0.19;61.25
85138;SHT31;75497;42.708;23.330;2024-01-30T01:26:30;-0.10;61.42
85138;SHT31;75497;42.708;23.330;2024-01-30T01:28:56;-0.06;61.03
85138;SHT31;75497;42.708;23.330;2024-01-30T01:31:21;-0.24;61.59
85138;SHT31;75497;42.708;23.330;2024-01-30T01:33:50;-0.14;61.33
85138;SHT31;75497;42.708;23.330;2024-01-30T01:36:15;-0.13;61.02
85138;SHT31;75497;42.708;23.330;2024-01-30T01:38:41;-0.12;61.08
85138;SHT31;75497;42.708;23.330;2024-01-30T01:41:06;-0.26;61.37
85138;SHT31;75497;42.708;23.330;2024-01-30T01:43:32;-0.33;61.74
85138;SHT31;75497;42.708;23.330;2024-01-30T01:45:58;-0.17;61.33
85138;SHT31;75497;42.708;23.330;2024-01-30T01:48:23;-0.20;61.54
85138;SHT31;75497;42.708;23.330;2024-01-30T01:50:49;-0.19;61.68
85138;SHT31;75497;42.708;23.330;2024-01-30T01:53:15;-0.03;61.18
85138;SHT31;75497;42.708;23.330;2024-01-30T01:55:41;-0.13;61.33
85138;SHT31;75497;42.708;23.330;2024-01-30T01:58:07;-0.09;61.47
85138;SHT31;75497;42.708;23.330;2024-01-30T02:00:34;-0.19;61.48
85138;SHT31;75497;42.708;23.330;2024-01-30T02:03:02;-0.12;61.34
85138;SHT31;75497;42.708;23.330;2024-01-30T02:05:30;-0.19;61.59
85138;SHT31;75497;42.708;23.330;2024-01-30T02:07:56;-0.36;61.78
85138;SHT31;75497;42.708;23.330;2024-01-30T02:10:21;-0.22;61.69
85138;SHT31;75497;42.708;23.330;2024-01-30T02:12:48;-0.29;61.66
85138;SHT31;75497;42.708;23.330;2024-01-30T02:15:14;-0.16;61.62
85138;SHT31;75497;42.708;23.330;2024-01-30T02:17:39;-0.44;62.20
85138;SHT31;75497;42.708;23.330;2024-01-30T02:20:05;-0.33;62.18
85138;SHT31;75497;42.708;23.330;2024-01-30T02:22:33;-0.37;62.07
85138;SHT31;75497;42.708;23.330;2024-01-30T02:24:59;-0.32;61.85
85138;SHT31;75497;42.708;23.330;2024-01-30T02:27:25;-0.24;61.48
85138;SHT31;75497;42.708;23.330;2024-01-30T02:29:50;-0.24;61.24
85138;SHT31;75497;42.708;23.330;2024-01-30T02:32:16;-0.16;61.33
85138;SHT31;75497;42.708;23.330;2024-01-30T02:34:42;-0.03;60.87
85138;SHT31;75497;42.708;23.330;2024-01-30T02:37:07;-0.02;60.75
85138;SHT31;75497;42.708;23.330;2024-01-30T02:39:33;0.02;60.67
85138;SHT31;75497;42.708;23.330;2024-01-30T02:41:58;0.11;60.67
85138;SHT31;75497;42.708;23.330;2024-01-30T02:44:24;0.08;60.49
85138;SHT31;75497;42.708;23.330;2024-01-30T02:46:49;0.04;60.97
85138;SHT31;75497;42.708;23.330;2024-01-30T02:49:15;0.01;60.80
85138;SHT31;75497;42.708;23.330;2024-01-30T02:51:40;-0.03;61.11
85138;SHT31;75497;42.708;23.330;2024-01-30T02:54:06;0.11;60.92
85138;SHT31;75497;42.708;23.330;2024-01-30T02:56:31;0.22;60.60
85138;SHT31;75497;42.708;23.330;2024-01-30T02:58:57;0.09;60.51
85138;SHT31;75497;42.708;23.330;2024-01-30T03:01:22;0.17;60.39
85138;SHT31;75497;42.708;23.330;2024-01-30T03:03:49;0.14;60.41
85138;SHT31;75497;42.708;23.330;2024-01-30T03:06:15;0.19;60.28
85138;SHT31;75497;42.708;23.330;2024-01-30T03:08:42;0.19;60.13
85138;SHT31;75497;42.708;23.330;2024-01-30T03:11:08;0.22;60.06
85138;SHT31;75497;42.708;23.330;2024-01-30T03:13:33;0.09;60.50
85138;SHT31;75497;42.708;23.330;2024-01-30T03:15:59;-0.03;60.55
85138;SHT31;75497;42.708;23.330;2024-01-30T03:18:24;-0.02;60.58
85138;SHT31;75497;42.708;23.330;2024-01-30T03:20:50;-0.06;60.52
85138;SHT31;75497;42.708;23.330;2024-01-30T03:23:15;-0.02;60.89
85138;SHT31;75497;42.708;23.330;2024-01-30T03:25:41;0.11;60.20
85138;SHT31;75497;42.708;23.330;2024-01-30T03:28:06;0.02;59.78
85138;SHT31;75497;42.708;23.330;2024-01-30T03:30:32;0.08;60.00
85138;SHT31;75497;42.708;23.330;2024-01-30T03:32:57;0.18;59.50
85138;SHT31;75497;42.708;23.330;2024-01-30T03:35:23;0.25;59.40
85138;SHT31;75497;42.708;23.330;2024-01-30T03:37:48;0.19;59.49
85138;SHT31;75497;42.708;23.330;2024-01-30T03:40:14;0.21;59.62
85138;SHT31;75497;42.708;23.330;2024-01-30T03:42:40;0.12;59.45
85138;SHT31;75497;42.708;23.330;2024-01-30T03:45:06;0.33;59.06
85138;SHT31;75497;42.708;23.330;2024-01-30T03:47:32;0.25;58.47
85138;SHT31;75497;42.708;23.330;2024-01-30T03:49:57;0.15;58.09
85138;SHT31;75497;42.708;23.330;2024-01-30T03:52:23;0.28;58.18
85138;SHT31;75497;42.708;23.330;2024-01-30T03:54:49;0.14;58.25
85138;SHT31;75497;42.708;23.330;2024-01-30T03:57:14;0.09;58.36
85138;SHT31;75497;42.708;23.330;2024-01-30T03:59:44;0.05;57.88
85138;SHT31;75497;42.708;23.330;2024-01-30T04:02:10;0.11;57.88
85138;SHT31;75497;42.708;23.330;2024-01-30T04:04:36;0.02;57.91
85138;SHT31;75497;42.708;23.330;2024-01-30T04:07:02;0.08;58.00
85138;SHT31;75497;42.708;23.330;2024-01-30T04:09:28;0.04;57.88
85138;SHT31;75497;42.708;23.330;2024-01-30T04:11:54;0.08;57.67
85138;SHT31;75497;42.708;23.330;2024-01-30T04:14:19;0.05;57.79
85138;SHT31;75497;42.708;23.330;2024-01-30T04:16:45;-0.09;58.03
85138;SHT31;75497;42.708;23.330;2024-01-30T04:19:10;0.09;57.56
85138;SHT31;75497;42.708;23.330;2024-01-30T04:21:36;-0.09;57.67
85138;SHT31;75497;42.708;23.330;2024-01-30T04:24:01;-0.13;57.64
85138;SHT31;75497;42.708;23.330;2024-01-30T04:26:27;-0.05;57.59
85138;SHT31;75497;42.708;23.330;2024-01-30T04:28:52;-0.22;58.45
85138;SHT31;75497;42.708;23.330;2024-01-30T04:31:18;-0.17;58.47
85138;SHT31;75497;42.708;23.330;2024-01-30T04:33:43;-0.27;58.68
85138;SHT31;75497;42.708;23.330;2024-01-30T04:36:09;-0.29;58.94
85138;SHT31;75497;42.708;23.330;2024-01-30T04:38:40;-0.30;59.04
85138;SHT31;75497;42.708;23.330;2024-01-30T04:41:07;-0.22;58.93
85138;SHT31;75497;42.708;23.330;2024-01-30T04:43:32;-0.19;58.71
85138;SHT31;75497;42.708;23.330;2024-01-30T04:45:58;-0.16;58.72
85138;SHT31;75497;42.708;23.330;2024-01-30T04:48:23;-0.19;58.75
85138;SHT31;75497;42.708;23.330;2024-01-30T04:50:49;-0.19;58.76
85138;SHT31;75497;42.708;23.330;2024-01-30T04:53:14;-0.37;58.88
85138;SHT31;75497;42.708;23.330;2024-01-30T04:55:40;-0.30;58.91
85138;SHT31;75497;42.708;23.330;2024-01-30T04:58:05;-0.12;58.45
85138;SHT31;75497;42.708;23.330;2024-01-30T05:00:31;-0.22;58.76
85138;SHT31;75497;42.708;23.330;2024-01-30T05:02:56;-0.23;58.63
85138;SHT31;75497;42.708;23.330;2024-01-30T05:05:22;-0.24;58.89
85138;SHT31;75497;42.708;23.330;2024-01-30T05:07:47;-0.20;59.01
85138;SHT31;75497;42.708;23.330;2024-01-30T05:10:13;-0.27;59.24
85138;SHT31;75497;42.708;23.330;2024-01-30T05:12:39;-0.40;59.73
85138;SHT31;75497;42.708;23.330;2024-01-30T05:15:05;-0.52;60.44
85138;SHT31;75497;42.708;23.330;2024-01-30T05:17:31;-0.38;60.06
85138;SHT31;75497;42.708;23.330;2024-01-30T05:19:57;-0.38;60.31
85138;SHT31;75497;42.708;23.330;2024-01-30T05:22:22;-0.29;60.07
85138;SHT31;75497;42.708;23.330;2024-01-30T05:24:48;-0.26;59.87
85138;SHT31;75497;42.708;23.330;2024-01-30T05:27:13;-0.22;59.92
85138;SHT31;75497;42.708;23.330;2024-01-30T05:29:40;-0.32;60.31
85138;SHT31;75497;42.708;23.330;2024-01-30T05:32:06;-0.47;60.98
85138;SHT31;75497;42.708;23.330;2024-01-30T05:34:31;-0.40;60.56
85138;SHT31;75497;42.708;23.330;2024-01-30T05:36:57;-0.61;60.82
85138;SHT31;75497;42.708;23.330;2024-01-30T05:39:22;-0.49;60.56
85138;SHT31;75497;42.708;23.330;2024-01-30T05:41:48;-0.52;60.59
85138;SHT31;75497;42.708;23.330;2024-01-30T05:44:13;-0.36;60.30
85138;SHT31;75497;42.708;23.330;2024-01-30T05:46:39;-0.37;60.09
85138;SHT31;75497;42.708;23.330;2024-01-30T05:49:04;-0.44;60.11
85138;SHT31;75497;42.708;23.330;2024-01-30T05:51:30;-0.53;60.46
85138;SHT31;75497;42.708;23.330;2024-01-30T05:53:55;-0.75;60.98
85138;SHT31;75497;42.708;23.330;2024-01-30T05:56:21;-0.61;60.50
85138;SHT31;75497;42.708;23.330;2024-01-30T05:58:47;-0.52;60.07
85138;SHT31;75497;42.708;23.330;2024-01-30T06:01:12;-0.73;59.42
85138;SHT31;75497;42.708;23.330;2024-01-30T06:03:38;-0.71;59.17
85138;SHT31;75497;42.708;23.330;2024-01-30T06:06:04;-0.91;59.12
85138;SHT31;75497;42.708;23.330;2024-01-30T06:08:29;-0.95;59.16
85138;SHT31;75497;42.708;23.330;2024-01-30T06:10:55;-0.96;59.05
85138;SHT31;75497;42.708;23.330;2024-01-30T06:13:20;-0.87;59.08
85138;SHT31;75497;42.708;23.330;2024-01-30T06:15:46;-0.81;59.05
85138;SHT31;75497;42.708;23.330;2024-01-30T06:18:11;-0.78;58.58
85138;SHT31;75497;42.708;23.330;2024-01-30T06:20:37;-0.61;58.17
85138;SHT31;75497;42.708;23.330;2024-01-30T06:23:03;-0.45;58.12
85138;SHT31;75497;42.708;23.330;2024-01-30T06:25:28;-0.26;57.85
85138;SHT31;75497;42.708;23.330;2024-01-30T06:27:54;-0.13;57.25
85138;SHT31;75497;42.708;23.330;2024-01-30T06:30:19;0.07;56.29
85138;SHT31;75497;42.708;23.330;2024-01-30T06:32:45;0.12;55.86
85138;SHT31;75497;42.708;23.330;2024-01-30T06:35:10;0.30;55.59
85138;SHT31;75497;42.708;23.330;2024-01-30T06:37:36;0.30;55.49
85138;SHT31;75497;42.708;23.330;2024-01-30T06:40:02;0.59;55.31
85138;SHT31;75497;42.708;23.330;2024-01-30T06:42:30;0.68;54.59
85138;SHT31;75497;42.708;23.330;2024-01-30T06:44:55;0.73;54.06
85138;SHT31;75497;42.708;23.330;2024-01-30T06:47:21;0.83;53.39
85138;SHT31;75497;42.708;23.330;2024-01-30T06:49:46;1.07;53.03
85138;SHT31;75497;42.708;23.330;2024-01-30T06:52:12;1.30;52.79
85138;SHT31;75497;42.708;23.330;2024-01-30T06:54:37;1.51;51.80
85138;SHT31;75497;42.708;23.330;2024-01-30T06:57:03;1.56;51.19
85138;SHT31;75497;42.708;23.330;2024-01-30T06:59:29;1.75;50.67
85138;SHT31;75497;42.708;23.330;2024-01-30T07:01:54;1.82;51.08
85138;SHT31;75497;42.708;23.330;2024-01-30T07:04:20;2.03;50.97
85138;SHT31;75497;42.708;23.330;2024-01-30T07:06:45;2.38;51.03
85138;SHT31;75497;42.708;23.330;2024-01-30T07:09:12;2.53;48.97
85138;SHT31;75497;42.708;23.330;2024-01-30T07:11:39;2.65;49.16
85138;SHT31;75497;42.708;23.330;2024-01-30T07:14:04;2.80;51.49
85138;SHT31;75497;42.708;23.330;2024-01-30T07:16:30;3.19;49.52
85138;SHT31;75497;42.708;23.330;2024-01-30T07:18:55;3.40;46.39
85138;SHT31;75497;42.708;23.330;2024-01-30T07:21:22;3.40;47.41
85138;SHT31;75497;42.708;23.330;2024-01-30T07:23:53;3.59;46.36
85138;SHT31;75497;42.708;23.330;2024-01-30T07:26:18;3.91;46.29
85138;SHT31;75497;42.708;23.330;2024-01-30T07:28:44;4.07;46.05
85138;SHT31;75497;42.708;23.330;2024-01-30T07:31:09;4.32;44.41
85138;SHT31;75497;42.708;23.330;2024-01-30T07:33:35;3.99;43.28
85138;SHT31;75497;42.708;23.330;2024-01-30T07:36:01;3.74;43.66
85138;SHT31;75497;42.708;23.330;2024-01-30T07:38:26;3.47;44.35
85138;SHT31;75497;42.708;23.330;2024-01-30T07:40:52;3.77;44.59
85138;SHT31;75497;42.708;23.330;2024-01-30T07:43:17;4.12;43.24
85138;SHT31;75497;42.708;23.330;2024-01-30T07:45:44;4.12;42.29
85138;SHT31;75497;42.708;23.330;2024-01-30T07:48:10;4.58;41.88
85138;SHT31;75497;42.708;23.330;2024-01-30T07:50:35;4.87;41.04
85138;SHT31;75497;42.708;23.330;2024-01-30T07:53:02;4.96;40.95
85138;SHT31;75497;42.708;23.330;2024-01-30T07:55:27;5.27;40.40
85138;SHT31;75497;42.708;23.330;2024-01-30T07:57:54;5.54;39.68
85138;SHT31;75497;42.708;23.330;2024-01-30T08:00:21;5.47;39.52
85138;SHT31;75497;42.708;23.330;2024-01-30T08:02:47;5.82;38.07
85138;SHT31;75497;42.708;23.330;2024-01-30T08:05:12;5.40;38.99
85138;SHT31;75497;42.708;23.330;2024-01-30T08:07:43;5.71;39.22
85138;SHT31;75497;42.708;23.330;2024-01-30T08:10:21;6.31;37.81
85138;SHT31;75497;42.708;23.330;2024-01-30T08:12:46;6.27;37.25
85138;SHT31;75497;42.708;23.330;2024-01-30T08:15:12;6.44;37.39
85138;SHT31;75497;42.708;23.330;2024-01-30T08:17:38;6.72;36.99
85138;SHT31;75497;42.708;23.330;2024-01-30T08:20:04;7.05;36.16
85138;SHT31;75497;42.708;23.330;2024-01-30T08:22:30;7.02;36.32
85138;SHT31;75497;42.708;23.330;2024-01-30T08:24:56;7.43;36.17
85138;SHT31;75497;42.708;23.330;2024-01-30T08:27:21;6.74;35.97
85138;SHT31;75497;42.708;23.330;2024-01-30T08:29:47;6.37;37.03
85138;SHT31;75497;42.708;23.330;2024-01-30T08:32:12;6.17;37.86
85138;SHT31;75497;42.708;23.330;2024-01-30T08:34:38;6.74;37.29
85138;SHT31;75497;42.708;23.330;2024-01-30T08:37:03;7.49;35.81
85138;SHT31;75497;42.708;23.330;2024-01-30T08:39:29;7.66;38.91
85138;SHT31;75497;42.708;23.330;2024-01-30T08:41:55;8.11;36.67
85138;SHT31;75497;42.708;23.330;2024-01-30T08:46:56;8.48;36.32
85138;SHT31;75497;42.708;23.330;2024-01-30T08:49:21;9.06;33.30
85138;SHT31;75497;42.708;23.330;2024-01-30T08:51:47;9.20;33.36
85138;SHT31;75497;42.708;23.330;2024-01-30T08:54:13;9.52;31.97
85138;SHT31;75497;42.708;23.330;2024-01-30T08:56:38;9.74;32.55
85138;SHT31;75497;42.708;23.330;2024-01-30T08:59:04;9.52;33.23
85138;SHT31;75497;42.708;23.330;2024-01-30T09:01:29;8.81;35.31
85138;SHT31;75497;42.708;23.330;2024-01-30T09:03:56;9.17;34.44
85138;SHT31;75497;42.708;23.330;2024-01-30T09:06:21;9.52;34.08
85138;SHT31;75497;42.708;23.330;2024-01-30T09:08:47;9.99;33.21
85138;SHT31;75497;42.708;23.330;2024-01-30T09:11:13;8.63;34.62
85138;SHT31;75497;42.708;23.330;2024-01-30T09:13:39;7.70;36.37
85138;SHT31;75497;42.708;23.330;2024-01-30T09:16:05;7.42;36.58
85138;SHT31;75497;42.708;23.330;2024-01-30T09:18:31;6.63;37.86
85138;SHT31;75497;42.708;23.330;2024-01-30T09:20:56;6.19;39.04
85138;SHT31;75497;42.708;23.330;2024-01-30T09:23:22;5.95;39.76
85138;SHT31;75497;42.708;23.330;2024-01-30T09:25:48;5.55;41.07
85138;SHT31;75497;42.708;23.330;2024-01-30T09:28:13;5.30;41.19
85138;SHT31;75497;42.708;23.330;2024-01-30T09:30:39;5.98;40.98
85138;SHT31;75497;42.708;23.330;2024-01-30T09:33:05;6.38;39.32
85138;SHT31;75497;42.708;23.330;2024-01-30T09:35:31;6.13;39.46
85138;SHT31;75497;42.708;23.330;2024-01-30T09:37:57;7.12;37.74
85138;SHT31;75497;42.708;23.330;2024-01-30T09:40:23;8.09;35.84
85138;SHT31;75497;42.708;23.330;2024-01-30T09:42:50;8.18;36.01
85138;SHT31;75497;42.708;23.330;2024-01-30T09:45:18;7.90;36.08
85138;SHT31;75497;42.708;23.330;2024-01-30T09:47:45;8.87;34.62
85138;SHT31;75497;42.708;23.330;2024-01-30T09:50:12;8.89;34.38
85138;SHT31;75497;42.708;23.330;2024-01-30T09:52:39;9.47;33.44
85138;SHT31;75497;42.708;23.330;2024-01-30T09:55:05;8.91;33.55
85138;SHT31;75497;42.708;23.330;2024-01-30T09:57:31;9.57;33.06
85138;SHT31;75497;42.708;23.330;2024-01-30T09:59:57;9.31;33.48
85138;SHT31;75497;42.708;23.330;2024-01-30T10:02:23;9.74;32.52
85138;SHT31;75497;42.708;23.330;2024-01-30T10:04:49;10.03;31.83
85138;SHT31;75497;42.708;23.330;2024-01-30T10:07:16;10.37;31.36
85138;SHT31;75497;42.708;23.330;2024-01-30T10:09:41;10.65;31.04
85138;SHT31;75497;42.708;23.330;2024-01-30T10:12:07;10.63;30.76
85138;SHT31;75497;42.708;23.330;2024-01-30T10:14:34;11.04;30.07
85138;SHT31;75497;42.708;23.330;2024-01-30T10:17:03;12.23;28.72
85138;SHT31;75497;42.708;23.330;2024-01-30T10:19:29;12.81;28.01
85138;SHT31;75497;42.708;23.330;2024-01-30T10:21:54;11.70;28.93
85138;SHT31;75497;42.708;23.330;2024-01-30T10:24:24;12.11;28.00
85138;SHT31;75497;42.708;23.330;2024-01-30T10:26:49;11.84;28.47
85138;SHT31;75497;42.708;23.330;2024-01-30T10:29:15;12.21;28.90
85138;SHT31;75497;42.708;23.330;2024-01-30T10:31:41;13.00;27.48
85138;SHT31;75497;42.708;23.330;2024-01-30T10:34:07;13.53;26.37
85138;SHT31;75497;42.708;23.330;2024-01-30T10:36:42;13.32;26.67
85138;SHT31;75497;42.708;23.330;2024-01-30T10:39:08;13.85;26.11
85138;SHT31;75497;42.708;23.330;2024-01-30T10:41:43;12.21;28.09
85138;SHT31;75497;42.708;23.330;2024-01-30T10:44:09;10.72;29.70
85138;SHT31;75497;42.708;23.330;2024-01-30T10:46:37;9.48;31.82
85138;SHT31;75497;42.708;23.330;2024-01-30T10:49:04;8.73;33.30
85138;SHT31;75497;42.708;23.330;2024-01-30T10:51:31;9.41;32.91
85138;SHT31;75497;42.708;23.330;2024-01-30T10:53:57;9.98;31.53
85138;SHT31;75497;42.708;23.330;2024-01-30T10:56:23;10.94;30.66
85138;SHT31;75497;42.708;23.330;2024-01-30T10:58:53;11.02;30.17
85138;SHT31;75497;42.708;23.330;2024-01-30T11:01:20;11.42;29.71
85138;SHT31;75497;42.708;23.330;2024-01-30T11:03:49;11.35;29.50
85138;SHT31;75497;42.708;23.330;2024-01-30T11:06:16;11.53;29.43
85138;SHT31;75497;42.708;23.330;2024-01-30T11:08:44;11.69;29.20
85138;SHT31;75497;42.708;23.330;2024-01-30T11:11:10;11.53;28.90
85138;SHT31;75497;42.708;23.330;2024-01-30T11:13:36;11.43;28.90
85138;SHT31;75497;42.708;23.330;2024-01-30T11:16:02;10.06;31.29
85138;SHT31;75497;42.708;23.330;2024-01-30T11:18:32;11.23;29.94
85138;SHT31;75497;42.708;23.330;2024-01-30T11:20:59;10.98;30.44
85138;SHT31;75497;42.708;23.330;2024-01-30T11:23:27;9.39;32.17
85138;SHT31;75497;42.708;23.330;2024-01-30T11:25:53;9.07;33.04
85138;SHT31;75497;42.708;23.330;2024-01-30T11:28:21;8.79;33.87
85138;SHT31;75497;42.708;23.330;2024-01-30T11:30:46;8.94;33.55
85138;SHT31;75497;42.708;23.330;2024-01-30T11:33:13;8.73;33.79
85138;SHT31;75497;42.708;23.330;2024-01-30T11:35:43;8.60;34.24
85138;SHT31;75497;42.708;23.330;2024-01-30T11:38:11;7.71;35.70
85138;SHT31;75497;42.708;23.330;2024-01-30T11:40:38;7.73;36.06
85138;SHT31;75497;42.708;23.330;2024-01-30T11:43:05;7.50;36.35
85138;SHT31;75497;42.708;23.330;2024-01-30T11:45:32;7.32;36.76
85138;SHT31;75497;42.708;23.330;2024-01-30T11:47:58;6.43;38.45
85138;SHT31;75497;42.708;23.330;2024-01-30T11:50:25;5.66;39.56
85138;SHT31;75497;42.708;23.330;2024-01-30T11:52:51;5.55;40.15
85138;SHT31;75497;42.708;23.330;2024-01-30T11:55:16;5.54;40.25
85138;SHT31;75497;42.708;23.330;2024-01-30T11:57:43;6.14;39.36
85138;SHT31;75497;42.708;23.330;2024-01-30T12:00:17;7.08;38.31
85138;SHT31;75497;42.708;23.330;2024-01-30T12:02:44;8.14;35.51
85138;SHT31;75497;42.708;23.330;2024-01-30T12:05:14;9.06;33.94
85138;SHT31;75497;42.708;23.330;2024-01-30T12:07:39;8.73;34.03
85138;SHT31;75497;42.708;23.330;2024-01-30T12:10:05;9.71;32.67
85138;SHT31;75497;42.708;23.330;2024-01-30T12:12:31;10.56;31.11
85138;SHT31;75497;42.708;23.330;2024-01-30T12:14:56;10.60;31.25
85138;SHT31;75497;42.708;23.330;2024-01-30T12:17:29;11.79;29.71
85138;SHT31;75497;42.708;23.330;2024-01-30T12:20:05;12.04;29.15
85138;SHT31;75497;42.708;23.330;2024-01-30T12:22:33;12.73;28.11
85138;SHT31;75497;42.708;23.330;2024-01-30T12:24:58;13.07;27.79
85138;SHT31;75497;42.708;23.330;2024-01-30T12:27:24;13.44;26.81
85138;SHT31;75497;42.708;23.330;2024-01-30T12:29:56;13.06;27.07
85138;SHT31;75497;42.708;23.330;2024-01-30T12:32:22;13.65;26.55
85138;SHT31;75497;42.708;23.330;2024-01-30T12:34:48;12.88;27.45
85138;SHT31;75497;42.708;23.330;2024-01-30T12:37:14;11.23;29.59
85138;SHT31;75497;42.708;23.330;2024-01-30T12:39:40;12.03;28.72
85138;SHT31;75497;42.708;23.330;2024-01-30T12:42:06;12.34;28.13
85138;SHT31;75497;42.708;23.330;2024-01-30T12:44:31;12.95;27.66
85138;SHT31;75497;42.708;23.330;2024-01-30T12:46:57;13.24;27.68
85138;SHT31;75497;42.708;23.330;2024-01-30T12:49:22;13.13;27.04
85138;SHT31;75497;42.708;23.330;2024-01-30T12:51:48;13.39;27.02
85138;SHT31;75497;42.708;23.330;2024-01-30T12:54:13;13.89;26.38
85138;SHT31;75497;42.708;23.330;2024-01-30T12:56:39;13.85;26.11
85138;SHT31;75497;42.708;23.330;2024-01-30T12:59:04;14.04;25.99
85138;SHT31;75497;42.708;23.330;2024-01-30T13:01:30;14.24;26.03
85138;SHT31;75497;42.708;23.330;2024-01-30T13:03:55;14.36;25.71
85138;SHT31;75497;42.708;23.330;2024-01-30T13:06:22;14.05;26.13
85138;SHT31;75497;42.708;23.330;2024-01-30T13:08:48;13.75;25.97
85138;SHT31;75497;42.708;23.330;2024-01-30T13:11:13;14.01;26.40
85138;SHT31;75497;42.708;23.330;2024-01-30T13:13:39;12.95;27.29
85138;SHT31;75497;42.708;23.330;2024-01-30T13:16:06;13.73;26.50
85138;SHT31;75497;42.708;23.330;2024-01-30T13:18:32;13.95;26.01
85138;SHT31;75497;42.708;23.330;2024-01-30T13:20:57;13.36;27.17
85138;SHT31;75497;42.708;23.330;2024-01-30T13:23:23;13.71;26.62
85138;SHT31;75497;42.708;23.330;2024-01-30T13:25:48;13.48;27.07
85138;SHT31;75497;42.708;23.330;2024-01-30T13:28:14;12.52;27.97
85138;SHT31;75497;42.708;23.330;2024-01-30T13:30:39;13.28;27.42
85138;SHT31;75497;42.708;23.330;2024-01-30T13:33:05;13.09;27.11
85138;SHT31;75497;42.708;23.330;2024-01-30T13:35:30;12.56;28.49
85138;SHT31;75497;42.708;23.330;2024-01-30T13:37:56;13.02;28.14
85138;SHT31;75497;42.708;23.330;2024-01-30T13:40:21;12.99;27.54
85138;SHT31;75497;42.708;23.330;2024-01-30T13:42:47;12.21;28.89
85138;SHT31;75497;42.708;23.330;2024-01-30T13:45:13;12.86;28.37
85138;SHT31;75497;42.708;23.330;2024-01-30T13:47:38;13.20;28.03
85138;SHT31;75497;42.708;23.330;2024-01-30T13:50:05;12.76;28.09
85138;SHT31;75497;42.708;23.330;2024-01-30T13:52:31;12.01;29.23
85138;SHT31;75497;42.708;23.330;2024-01-30T13:54:56;11.90;29.48
85138;SHT31;75497;42.708;23.330;2024-01-30T13:57:22;11.74;30.33
85138;SHT31;75497;42.708;23.330;2024-01-30T13:59:47;11.94;29.76
85138;SHT31;75497;42.708;23.330;2024-01-30T14:02:13;11.49;30.29
85138;SHT31;75497;42.708;23.330;2024-01-30T14:04:38;11.77;30.02
85138;SHT31;75497;42.708;23.330;2024-01-30T14:07:04;11.59;29.98
85138;SHT31;75497;42.708;23.330;2024-01-30T14:09:31;11.25;30.70
85138;SHT31;75497;42.708;23.330;2024-01-30T14:11:58;10.26;31.80
85138;SHT31;75497;42.708;23.330;2024-01-30T14:14:24;10.46;31.82
85138;SHT31;75497;42.708;23.330;2024-01-30T14:16:49;9.96;32.63
85138;SHT31;75497;42.708;23.330;2024-01-30T14:19:15;10.60;31.51
85138;SHT31;75497;42.708;23.330;2024-01-30T14:21:40;10.64;31.33
85138;SHT31;75497;42.708;23.330;2024-01-30T14:24:06;10.54;31.79
85138;SHT31;75497;42.708;23.330;2024-01-30T14:26:31;10.44;31.67
85138;SHT31;75497;42.708;23.330;2024-01-30T14:28:57;9.85;33.06
85138;SHT31;75497;42.708;23.330;2024-01-30T14:31:22;10.74;31.53
85138;SHT31;75497;42.708;23.330;2024-01-30T14:33:49;10.33;32.09
85138;SHT31;75497;42.708;23.330;2024-01-30T14:36:16;10.17;32.67
85138;SHT31;75497;42.708;23.330;2024-01-30T14:38:41;10.43;31.75
85138;SHT31;75497;42.708;23.330;2024-01-30T14:41:07;10.30;32.26
85138;SHT31;75497;42.708;23.330;2024-01-30T14:43:32;9.92;32.77
85138;SHT31;75497;42.708;23.330;2024-01-30T14:45:58;9.38;33.65
85138;SHT31;75497;42.708;23.330;2024-01-30T14:48:23;9.75;33.31
85138;SHT31;75497;42.708;23.330;2024-01-30T14:50:49;9.31;33.62
85138;SHT31;75497;42.708;23.330;2024-01-30T14:53:14;8.65;35.00
85138;SHT31;75497;42.708;23.330;2024-01-30T14:55:40;8.62;35.66
85138;SHT31;75497;42.708;23.330;2024-01-30T14:58:05;8.34;35.56
85138;SHT31;75497;42.708;23.330;2024-01-30T15:00:31;7.93;36.30
85138;SHT31;75497;42.708;23.330;2024-01-30T15:02:56;8.01;36.13
85138;SHT31;75497;42.708;23.330;2024-01-30T15:05:22;7.67;36.71
85138;SHT31;75497;42.708;23.330;2024-01-30T15:07:47;8.14;35.99
85138;SHT31;75497;42.708;23.330;2024-01-30T15:10:13;7.93;36.12
85138;SHT31;75497;42.708;23.330;2024-01-30T15:12:39;7.11;38.28
85138;SHT31;75497;42.708;23.330;2024-01-30T15:15:07;6.95;38.27
85138;SHT31;75497;42.708;23.330;2024-01-30T15:17:32;6.37;39.36